Time;durP1;ratioP1;P1;durP2;ratioP2;P2;SDS_P1;SDS_P2;PMS_P1;PMS_P2;Temp;Humidity;BMP_temperature;BMP_pressure;BME280_temperature;BME280_humidity;BME280_pressure;Samples;Min_cycle;Max_cycle;Signal;HPM_P1;HPM_P2
2023/04/24 00:01:01;;;;;;;1.23;0.90;;;15.90;96.00;;;;;;5016089;28;20415;-86
2023/04/24 00:03:27;;;;;;;1.30;1.13;;;15.80;95.90;;;;;;4998981;28;20433;-87
2023/04/24 00:05:56;;;;;;;1.20;1.10;;;15.80;95.90;;;;;;4999401;28;20413;-86
2023/04/24 00:08:23;;;;;;;1.17;1.07;;;15.80;95.80;;;;;;4995462;28;20445;-85
2023/04/24 00:10:49;;;;;;;2.50;1.23;;;15.80;95.80;;;;;;4995697;28;20810;-86
2023/04/24 00:13:15;;;;;;;1.43;1.20;;;15.80;95.80;;;;;;4979419;28;20427;-86
2023/04/24 00:15:43;;;;;;;3.13;1.40;;;15.70;95.70;;;;;;4995378;28;20917;-86
2023/04/24 00:18:11;;;;;;;2.97;1.20;;;15.70;95.70;;;;;;4996340;28;20503;-85
2023/04/24 00:20:39;;;;;;;1.20;1.10;;;15.70;95.70;;;;;;4979596;28;20428;-84
2023/04/24 00:23:08;;;;;;;1.30;1.07;;;15.70;95.70;;;;;;4995347;28;20430;-86
2023/04/24 00:25:34;;;;;;;6.23;1.40;;;15.70;95.70;;;;;;4995679;28;20498;-85
2023/04/24 00:28:00;;;;;;;1.23;1.07;;;15.70;95.60;;;;;;5011357;28;20483;-86
2023/04/24 00:30:26;;;;;;;1.13;1.03;;;15.70;95.60;;;;;;4995296;28;20440;-85
2023/04/24 00:32:54;;;;;;;1.57;1.37;;;15.70;95.70;;;;;;4995229;28;20429;-85
2023/04/24 00:35:23;;;;;;;1.27;1.00;;;15.70;95.70;;;;;;5011466;28;20397;-86
2023/04/24 00:37:49;;;;;;;1.83;1.40;;;15.70;95.70;;;;;;5011245;28;20759;-87
2023/04/24 00:40:18;;;;;;;2.13;1.50;;;15.70;95.70;;;;;;5026193;28;20913;-86
2023/04/24 00:42:46;;;;;;;1.30;1.20;;;15.70;95.70;;;;;;4998207;28;20432;-85
2023/04/24 00:45:12;;;;;;;1.30;1.20;;;15.60;95.60;;;;;;5003525;28;21181;-86
2023/04/24 00:47:41;;;;;;;1.50;1.40;;;15.60;95.60;;;;;;4996579;28;20482;-85
2023/04/24 00:50:08;;;;;;;2.90;1.30;;;15.60;95.60;;;;;;4996803;28;20509;-86
2023/04/24 00:52:34;;;;;;;1.40;1.20;;;15.60;95.50;;;;;;4996242;28;20800;-86
2023/04/24 00:55:00;;;;;;;2.17;1.50;;;15.60;95.50;;;;;;4975561;28;20445;-85
2023/04/24 00:57:29;;;;;;;3.43;1.70;;;15.60;95.50;;;;;;4975957;28;20442;-86
2023/04/24 00:59:55;;;;;;;1.90;1.30;;;15.60;95.50;;;;;;5007796;28;20506;-86
2023/04/24 01:02:24;;;;;;;2.10;1.43;;;15.50;95.40;;;;;;4975205;28;20464;-86
2023/04/24 01:04:56;;;;;;;4.13;1.17;;;15.50;95.40;;;;;;4943438;28;20430;-87
2023/04/24 01:07:22;;;;;;;1.50;1.40;;;15.50;95.40;;;;;;5007677;28;20476;-86
2023/04/24 01:09:51;;;;;;;1.40;1.30;;;15.50;95.40;;;;;;5011123;28;20423;-86
2023/04/24 01:12:21;;;;;;;2.30;1.70;;;15.40;95.30;;;;;;4962512;28;20434;-86
2023/04/24 01:14:47;;;;;;;2.00;1.70;;;15.40;95.30;;;;;;4994609;28;20453;-86
2023/04/24 01:17:20;;;;;;;2.30;2.10;;;15.40;95.30;;;;;;4995034;28;20715;-85
2023/04/24 01:19:47;;;;;;;2.23;2.03;;;15.40;95.30;;;;;;4978631;28;20549;-86
2023/04/24 01:22:18;;;;;;;3.00;1.80;;;15.40;95.40;;;;;;4962666;28;20425;-86
2023/04/24 01:24:44;;;;;;;1.70;1.60;;;15.40;95.40;;;;;;4962424;28;20754;-86
2023/04/24 01:27:14;;;;;;;2.23;2.00;;;15.40;95.30;;;;;;4978244;28;20564;-85
2023/04/24 01:29:41;;;;;;;2.80;2.20;;;15.30;95.30;;;;;;5010767;28;20736;-85
2023/04/24 01:32:09;;;;;;;3.07;2.27;;;15.30;95.30;;;;;;4998288;28;20458;-85
2023/04/24 01:34:38;;;;;;;2.90;2.00;;;15.30;95.30;;;;;;4998897;28;20423;-86
2023/04/24 01:37:06;;;;;;;3.73;1.77;;;15.30;95.30;;;;;;4982236;28;20460;-85
2023/04/24 01:39:34;;;;;;;2.50;2.23;;;15.30;95.30;;;;;;4982132;28;20520;-83
2023/04/24 01:42:02;;;;;;;2.30;2.10;;;15.30;95.40;;;;;;4982186;28;20431;-85
2023/04/24 01:44:28;;;;;;;2.80;2.03;;;15.20;95.30;;;;;;4997743;28;20457;-86
2023/04/24 01:46:55;;;;;;;3.30;2.47;;;15.20;95.30;;;;;;5014446;28;20981;-86
2023/04/24 01:49:21;;;;;;;2.53;2.10;;;15.20;95.30;;;;;;4982107;28;20536;-86
2023/04/24 01:51:47;;;;;;;2.53;2.30;;;15.20;95.30;;;;;;4981896;28;20472;-85
2023/04/24 01:54:13;;;;;;;2.87;2.57;;;15.20;95.30;;;;;;5014141;28;20472;-86
2023/04/24 01:56:43;;;;;;;4.40;2.60;;;15.20;95.30;;;;;;4990290;28;20781;-85
2023/04/24 01:59:13;;;;;;;2.50;2.30;;;15.20;95.30;;;;;;5000796;28;20428;-86
2023/04/24 02:01:39;;;;;;;4.53;2.87;;;15.20;95.30;;;;;;5016819;28;20968;-86
2023/04/24 02:04:08;;;;;;;4.03;2.90;;;15.10;95.30;;;;;;5001200;28;20481;-85
2023/04/24 02:06:35;;;;;;;5.30;2.77;;;15.10;95.20;;;;;;5001396;28;20475;-85
2023/04/24 02:09:01;;;;;;;3.43;2.90;;;15.10;95.20;;;;;;5025049;28;20426;-86
2023/04/24 02:11:30;;;;;;;4.27;3.27;;;15.10;95.20;;;;;;4998300;28;20875;-87
2023/04/24 02:13:57;;;;;;;4.40;3.60;;;15.10;95.20;;;;;;4981497;28;20471;-86
2023/04/24 02:16:31;;;;;;;3.30;3.00;;;15.10;95.20;;;;;;4997846;28;20425;-86
2023/04/24 02:18:58;;;;;;;3.57;3.27;;;15.10;95.20;;;;;;4997479;28;20473;-85
2023/04/24 02:21:27;;;;;;;4.03;3.57;;;15.10;95.20;;;;;;4965538;28;20436;-85
2023/04/24 02:23:53;;;;;;;6.83;3.27;;;15.00;95.20;;;;;;4981191;28;20469;-86
2023/04/24 02:26:21;;;;;;;5.30;3.70;;;15.00;95.20;;;;;;5013765;28;20563;-86
2023/04/24 02:28:47;;;;;;;8.40;4.17;;;15.00;95.10;;;;;;5013741;28;20445;-85
2023/04/24 02:31:13;;;;;;;6.60;3.70;;;15.00;95.20;;;;;;4997466;28;20492;-86
2023/04/24 02:33:43;;;;;;;4.90;4.40;;;15.00;95.20;;;;;;4981494;28;20438;-85
2023/04/24 02:36:08;;;;;;;3.57;3.27;;;15.00;95.20;;;;;;4997025;28;20529;-85
2023/04/24 02:38:34;;;;;;;4.60;4.20;;;15.00;95.20;;;;;;4997571;28;20437;-85
2023/04/24 02:41:07;;;;;;;5.27;4.17;;;15.00;95.20;;;;;;4997152;28;20462;-86
2023/04/24 02:43:35;;;;;;;5.37;3.67;;;15.00;95.30;;;;;;5005377;28;20465;-86
2023/04/24 02:46:04;;;;;;;7.37;4.90;;;15.00;95.30;;;;;;5000510;28;20421;-86
2023/04/24 02:48:30;;;;;;;5.87;5.27;;;14.90;95.20;;;;;;5016564;28;20518;-88
2023/04/24 02:50:58;;;;;;;8.17;4.83;;;14.90;95.20;;;;;;4982900;28;20813;-85
2023/04/24 02:53:25;;;;;;;5.27;4.77;;;14.90;95.20;;;;;;4981011;28;20243;-89
2023/04/24 02:55:53;;;;;;;7.70;4.90;;;14.90;95.30;;;;;;4996903;28;20414;-86
2023/04/24 02:58:19;;;;;;;5.50;5.00;;;14.90;95.30;;;;;;4964686;28;20541;-86
2023/04/24 03:00:49;;;;;;;8.23;5.77;;;14.90;95.30;;;;;;4980702;28;20450;-86
2023/04/24 03:03:18;;;;;;;9.73;5.57;;;14.90;95.30;;;;;;4997536;28;20412;-85
2023/04/24 03:05:44;;;;;;;6.00;5.13;;;14.90;95.30;;;;;;5012948;28;20485;-85
2023/04/24 03:08:10;;;;;;;6.10;5.00;;;14.90;95.30;;;;;;4997502;28;20460;-85
2023/04/24 03:10:36;;;;;;;8.03;5.43;;;14.90;95.30;;;;;;4980440;28;20444;-85
2023/04/24 03:13:01;;;;;;;8.53;5.30;;;14.90;95.30;;;;;;4996350;28;20422;-85
2023/04/24 03:15:30;;;;;;;6.03;5.13;;;14.80;95.30;;;;;;4996773;28;20230;-86
2023/04/24 03:17:56;;;;;;;7.50;5.63;;;14.80;95.30;;;;;;4980595;28;20456;-85
2023/04/24 03:20:24;;;;;;;6.10;5.33;;;14.80;95.30;;;;;;5012375;28;20437;-86
2023/04/24 03:22:51;;;;;;;7.03;6.30;;;14.80;95.30;;;;;;4980628;28;20477;-86
2023/04/24 03:25:19;;;;;;;8.77;5.50;;;14.80;95.30;;;;;;4964628;28;20425;-86
2023/04/24 03:27:57;;;;;;;6.87;5.87;;;14.80;95.30;;;;;;4980061;28;20473;-85
2023/04/24 03:30:42;;;;;;;8.73;6.17;;;14.80;95.40;;;;;;4996277;28;20414;-85
2023/04/24 03:33:09;;;;;;;8.00;6.20;;;14.80;95.40;;;;;;4980199;28;20437;-85
2023/04/24 03:35:45;;;;;;;8.90;6.17;;;14.70;95.30;;;;;;4980265;28;20432;-84
2023/04/24 03:38:15;;;;;;;8.20;5.87;;;14.80;95.40;;;;;;5012602;28;20407;-86
2023/04/24 03:40:46;;;;;;;7.43;5.70;;;14.70;95.40;;;;;;4996901;28;20433;-85
2023/04/24 03:43:35;;;;;;;8.00;5.43;;;14.70;95.40;;;;;;5009656;28;20505;-86
2023/04/24 03:46:04;;;;;;;8.90;5.90;;;14.70;95.40;;;;;;4980239;28;20495;-85
2023/04/24 03:48:40;;;;;;;7.80;5.23;;;14.70;95.40;;;;;;4995874;28;20421;-86
2023/04/24 03:51:10;;;;;;;8.17;6.20;;;14.70;95.50;;;;;;4978444;28;20460;-85
2023/04/24 03:53:39;;;;;;;8.67;6.23;;;14.70;95.50;;;;;;4963616;28;20417;-86
2023/04/24 03:56:07;;;;;;;7.23;5.70;;;14.70;95.50;;;;;;4979551;28;20879;-86
2023/04/24 03:58:34;;;;;;;8.93;5.83;;;14.70;95.50;;;;;;4995830;28;20406;-86
2023/04/24 04:01:00;;;;;;;9.17;6.00;;;14.70;95.50;;;;;;4995733;28;20749;-85
2023/04/24 04:03:58;;;;;;;7.67;5.70;;;14.70;95.50;;;;;;4992959;28;20235;-85
2023/04/24 04:06:26;;;;;;;7.97;5.47;;;14.70;95.50;;;;;;5031167;28;20602;-85
2023/04/24 04:08:56;;;;;;;7.50;5.67;;;14.70;95.50;;;;;;5011396;28;20455;-86
2023/04/24 04:11:24;;;;;;;8.50;6.13;;;14.60;95.40;;;;;;4981535;28;20441;-86
2023/04/24 04:13:50;;;;;;;8.00;5.70;;;14.60;95.40;;;;;;4979300;28;20442;-86
2023/04/24 04:16:22;;;;;;;6.80;6.07;;;14.60;95.40;;;;;;4979492;28;20851;-86
2023/04/24 04:18:51;;;;;;;8.30;6.20;;;14.60;95.40;;;;;;4979296;28;20766;-86
2023/04/24 04:21:17;;;;;;;8.10;6.50;;;14.60;95.40;;;;;;4978984;28;20472;-85
2023/04/24 04:23:48;;;;;;;9.43;6.43;;;14.60;95.40;;;;;;4995670;28;20429;-87
2023/04/24 04:26:27;;;;;;;6.80;6.10;;;14.60;95.40;;;;;;4995116;28;20539;-85
2023/04/24 04:29:04;;;;;;;7.80;6.03;;;14.60;95.40;;;;;;4964495;28;20902;-86
2023/04/24 04:31:34;;;;;;;9.07;6.67;;;14.60;95.40;;;;;;4963526;28;20453;-84
2023/04/24 04:34:05;;;;;;;8.83;5.63;;;14.60;95.50;;;;;;4995011;28;20926;-86
2023/04/24 04:36:36;;;;;;;6.23;5.60;;;14.60;95.50;;;;;;4995172;28;20431;-84
2023/04/24 04:39:14;;;;;;;7.07;5.67;;;14.50;95.40;;;;;;5011212;28;20738;-85
2023/04/24 04:41:54;;;;;;;7.67;5.80;;;14.50;95.40;;;;;;4980524;28;20436;-87
2023/04/24 04:44:27;;;;;;;6.80;5.00;;;14.50;95.40;;;;;;4997817;28;20447;-86
2023/04/24 04:46:59;;;;;;;9.47;5.50;;;14.60;95.50;;;;;;5014404;28;20451;-86
2023/04/24 04:49:30;;;;;;;7.67;5.17;;;14.50;95.50;;;;;;4998205;28;20455;-86
2023/04/24 04:51:57;;;;;;;7.97;5.70;;;14.50;95.50;;;;;;5007504;28;20750;-86
2023/04/24 04:54:27;;;;;;;9.33;6.27;;;14.50;95.50;;;;;;4978698;28;20408;-84
2023/04/24 04:56:54;;;;;;;8.67;5.87;;;14.50;95.50;;;;;;4994932;28;20401;-86
2023/04/24 04:59:22;;;;;;;5.83;5.20;;;14.50;95.50;;;;;;4978943;28;20419;-85
2023/04/24 05:01:55;;;;;;;8.67;5.17;;;14.50;95.50;;;;;;4994137;28;20508;-84
2023/04/24 05:04:26;;;;;;;5.97;5.00;;;14.40;95.40;;;;;;4962537;28;20468;-85
2023/04/24 05:06:54;;;;;;;5.63;4.80;;;14.50;95.50;;;;;;5010280;28;20469;-85
2023/04/24 05:09:22;;;;;;;5.30;4.80;;;14.40;95.50;;;;;;4994887;28;20428;-85
2023/04/24 05:11:55;;;;;;;6.13;5.40;;;14.40;95.50;;;;;;4962981;28;20479;-85
2023/04/24 05:14:24;;;;;;;7.50;5.93;;;14.40;95.50;;;;;;4994479;28;20488;-84
2023/04/24 05:16:53;;;;;;;9.73;5.87;;;14.40;95.50;;;;;;5010787;28;20472;-85
2023/04/24 05:19:20;;;;;;;6.90;5.60;;;14.40;95.50;;;;;;5009589;28;20779;-85
2023/04/24 05:21:46;;;;;;;7.47;5.60;;;14.40;95.60;;;;;;4996543;28;20447;-85
2023/04/24 05:24:12;;;;;;;5.90;5.27;;;14.40;95.60;;;;;;4962338;28;20459;-84
2023/04/24 05:26:47;;;;;;;8.67;5.93;;;14.40;95.70;;;;;;4991176;28;20221;-85
2023/04/24 05:29:19;;;;;;;6.53;5.00;;;14.40;95.70;;;;;;4991214;28;20817;-86
2023/04/24 05:31:45;;;;;;;6.10;5.30;;;14.40;95.70;;;;;;4975239;28;20505;-86
2023/04/24 05:34:11;;;;;;;6.30;5.03;;;14.40;95.70;;;;;;4975258;28;20441;-84
2023/04/24 05:36:40;;;;;;;6.60;5.27;;;14.40;95.80;;;;;;4975038;28;20460;-86
2023/04/24 05:39:06;;;;;;;6.17;5.57;;;14.40;95.90;;;;;;4975140;28;20533;-85
2023/04/24 05:41:34;;;;;;;5.30;4.47;;;14.40;95.90;;;;;;4974284;28;20454;-86
2023/04/24 05:44:00;;;;;;;6.50;5.90;;;14.30;95.90;;;;;;4958808;28;20414;-86
2023/04/24 05:46:28;;;;;;;6.57;5.40;;;14.30;95.90;;;;;;4974728;28;20469;-85
2023/04/24 05:48:57;;;;;;;5.97;5.37;;;14.30;96.00;;;;;;4991090;28;20394;-86
2023/04/24 05:51:24;;;;;;;5.90;4.63;;;14.30;96.00;;;;;;4990897;28;20417;-84
2023/04/24 05:53:50;;;;;;;6.07;5.47;;;14.30;96.10;;;;;;4990842;28;20443;-85
2023/04/24 05:56:16;;;;;;;6.33;5.10;;;14.30;96.10;;;;;;4974702;28;20434;-85
2023/04/24 05:58:42;;;;;;;6.47;5.20;;;14.20;96.10;;;;;;4974679;28;20453;-84
2023/04/24 06:01:09;;;;;;;7.30;5.50;;;14.30;96.10;;;;;;4974767;28;20468;-84
2023/04/24 06:03:37;;;;;;;7.50;5.90;;;14.30;96.10;;;;;;4991465;28;20767;-91
2023/04/24 06:06:06;;;;;;;6.13;5.53;;;14.20;96.10;;;;;;4974936;28;20429;-85
2023/04/24 06:08:32;;;;;;;7.13;5.40;;;14.20;96.10;;;;;;4990790;28;20484;-86
2023/04/24 06:11:03;;;;;;;6.03;5.30;;;14.20;96.10;;;;;;4962522;28;20865;-86
2023/04/24 06:13:29;;;;;;;6.30;4.87;;;14.20;96.10;;;;;;4990816;28;20425;-86
2023/04/24 06:16:18;;;;;;;9.53;5.70;;;14.20;96.10;;;;;;4975927;28;20470;-89
2023/04/24 06:18:51;;;;;;;6.40;5.27;;;14.20;96.20;;;;;;4994419;28;20450;-88
2023/04/24 06:21:20;;;;;;;5.63;4.87;;;14.20;96.30;;;;;;5002782;28;20466;-88
2023/04/24 06:23:47;;;;;;;6.40;4.60;;;14.20;96.30;;;;;;5003146;28;20425;-88
2023/04/24 06:26:14;;;;;;;6.40;4.97;;;14.20;96.40;;;;;;5023347;28;20424;-86
2023/04/24 06:28:40;;;;;;;5.30;4.80;;;14.20;96.40;;;;;;5004232;28;20998;-85
2023/04/24 06:31:08;;;;;;;5.70;5.10;;;14.20;96.50;;;;;;4997790;28;20960;-86
2023/04/24 06:33:34;;;;;;;6.80;4.40;;;14.20;96.60;;;;;;5017100;28;20224;-85
2023/04/24 06:36:00;;;;;;;5.87;5.00;;;14.20;96.60;;;;;;5033270;28;20434;-86
2023/04/24 06:38:26;;;;;;;6.60;5.27;;;14.20;96.60;;;;;;5016056;28;20927;-85
2023/04/24 06:40:51;;;;;;;5.00;4.50;;;14.20;96.70;;;;;;4992256;28;20448;-85
2023/04/24 06:43:20;;;;;;;5.77;4.40;;;14.10;96.70;;;;;;4983376;28;20183;-86
2023/04/24 06:45:48;;;;;;;5.40;4.10;;;14.10;96.70;;;;;;4977642;28;20538;-84
2023/04/24 06:48:16;;;;;;;6.47;3.90;;;14.10;96.80;;;;;;4993307;28;20457;-82
2023/04/24 06:50:42;;;;;;;6.33;4.13;;;14.10;96.80;;;;;;4981020;28;20924;-85
2023/04/24 06:53:12;;;;;;;5.87;3.90;;;14.10;96.90;;;;;;4981018;28;20417;-83
2023/04/24 06:55:38;;;;;;;4.20;3.90;;;14.10;97.00;;;;;;4981161;28;20537;-83
2023/04/24 06:58:16;;;;;;;4.17;3.73;;;14.10;97.00;;;;;;4979166;28;20516;-86
2023/04/24 07:00:53;;;;;;;3.57;3.27;;;14.10;97.10;;;;;;4967867;28;20416;-86
2023/04/24 07:03:53;;;;;;;4.27;3.70;;;14.00;97.10;;;;;;4964786;28;20425;-85
2023/04/24 07:06:22;;;;;;;4.10;3.20;;;14.00;97.20;;;;;;4981253;28;20421;-86
2023/04/24 07:13:46;;;;;;;3.40;3.10;;;14.00;97.40;;;;;;5014215;28;20435;-85
2023/04/24 07:16:11;;;;;;;3.23;2.90;;;14.00;97.50;;;;;;4980322;28;20781;-85
2023/04/24 07:18:39;;;;;;;3.23;2.80;;;14.00;97.60;;;;;;4980518;28;20456;-85
2023/04/24 07:21:07;;;;;;;4.43;2.67;;;13.90;97.70;;;;;;4996516;28;20497;-83
2023/04/24 07:23:37;;;;;;;2.90;2.60;;;13.90;97.70;;;;;;5012585;28;20442;-83
2023/04/24 07:26:06;;;;;;;2.87;1.90;;;13.90;97.80;;;;;;4996710;28;20508;-86
2023/04/24 07:28:37;;;;;;;3.00;1.90;;;13.90;97.80;;;;;;4995867;28;20775;-84
2023/04/24 07:31:07;;;;;;;1.63;1.50;;;13.90;97.80;;;;;;4996719;28;20422;-83
2023/04/24 07:33:33;;;;;;;1.93;1.70;;;13.80;97.80;;;;;;5012671;28;20931;-82
2023/04/24 07:36:00;;;;;;;1.53;1.27;;;13.80;97.80;;;;;;4996931;28;20529;-81
2023/04/24 07:38:28;;;;;;;1.40;1.30;;;13.80;97.80;;;;;;5012506;28;20404;-85
2023/04/24 07:40:55;;;;;;;3.77;1.37;;;13.80;97.70;;;;;;4971819;28;20894;-84
2023/04/24 07:43:23;;;;;;;1.97;1.70;;;13.80;97.70;;;;;;4969967;28;20474;-84
2023/04/24 07:45:53;;;;;;;1.70;1.40;;;13.70;97.60;;;;;;4980116;28;20423;-84
2023/04/24 07:48:22;;;;;;;1.53;1.43;;;13.70;97.60;;;;;;4979678;28;20481;-85
2023/04/24 07:50:47;;;;;;;1.83;1.23;;;13.70;97.60;;;;;;4979854;28;20432;-86
2023/04/24 07:53:13;;;;;;;1.50;1.40;;;13.70;97.60;;;;;;4996277;28;20548;-87
2023/04/24 07:55:39;;;;;;;1.30;1.20;;;13.70;97.60;;;;;;4996195;28;20464;-86
2023/04/24 07:58:10;;;;;;;1.50;1.40;;;13.70;97.60;;;;;;4996484;28;20425;-87
2023/04/24 08:00:35;;;;;;;1.97;1.80;;;13.60;97.60;;;;;;4980518;28;20435;-89
2023/04/24 08:03:02;;;;;;;1.43;1.30;;;13.60;97.50;;;;;;4963698;28;20468;-87
2023/04/24 08:05:32;;;;;;;2.53;1.40;;;13.60;97.60;;;;;;4995937;28;20450;-87
2023/04/24 08:07:58;;;;;;;2.20;1.70;;;13.60;97.60;;;;;;4979774;28;20818;-89
2023/04/24 08:10:25;;;;;;;2.33;1.50;;;13.60;97.60;;;;;;4979924;28;20439;-84
2023/04/24 08:12:51;;;;;;;1.57;1.47;;;13.60;97.60;;;;;;4996934;28;20423;-90
2023/04/24 08:15:20;;;;;;;1.30;1.20;;;13.60;97.70;;;;;;4980308;28;20466;-90
2023/04/24 08:17:48;;;;;;;1.37;1.27;;;13.60;97.70;;;;;;4964684;28;20450;-86
2023/04/24 08:20:14;;;;;;;1.50;1.40;;;13.60;97.70;;;;;;4980054;28;20450;-88
2023/04/24 08:22:41;;;;;;;1.77;1.67;;;13.60;97.80;;;;;;4963596;28;20457;-89
2023/04/24 08:25:07;;;;;;;1.33;1.23;;;13.60;97.90;;;;;;4979847;28;20754;-89
2023/04/24 08:27:33;;;;;;;1.40;1.20;;;13.50;97.90;;;;;;4979488;28;20467;-87
2023/04/24 08:30:03;;;;;;;1.77;1.23;;;13.50;97.90;;;;;;4980023;28;20396;-87
2023/04/24 08:32:30;;;;;;;1.30;1.20;;;13.50;98.00;;;;;;4980090;28;20967;-87
2023/04/24 08:34:59;;;;;;;1.33;1.23;;;13.50;98.00;;;;;;4980081;28;20440;-90
2023/04/24 08:37:28;;;;;;;1.53;1.43;;;13.50;98.10;;;;;;4996007;28;20793;-89
2023/04/24 08:39:54;;;;;;;1.67;1.57;;;13.50;98.10;;;;;;4979101;28;20763;-90
2023/04/24 08:42:20;;;;;;;1.50;1.40;;;13.50;98.20;;;;;;4996926;28;20890;-89
2023/04/24 08:44:49;;;;;;;1.10;1.00;;;13.50;98.20;;;;;;4979594;28;20420;-91
2023/04/24 08:47:15;;;;;;;1.53;1.30;;;13.50;98.30;;;;;;4979849;28;20552;-91
2023/04/24 08:49:45;;;;;;;1.40;1.30;;;13.50;98.30;;;;;;4995955;28;20427;-93
2023/04/24 08:52:12;;;;;;;1.30;1.20;;;13.50;98.30;;;;;;4996400;28;20536;-88
2023/04/24 08:54:39;;;;;;;1.30;1.20;;;13.50;98.30;;;;;;4979827;28;20449;-87
2023/04/24 08:57:10;;;;;;;1.30;1.20;;;13.50;98.30;;;;;;5011459;28;20510;-89
2023/04/24 08:59:37;;;;;;;1.83;1.40;;;13.50;98.40;;;;;;4963259;28;20445;-89
2023/04/24 09:02:04;;;;;;;1.40;1.30;;;13.50;98.40;;;;;;4995892;28;20425;-90
2023/04/24 09:04:33;;;;;;;2.10;1.40;;;13.50;98.50;;;;;;4963608;28;20431;-88
2023/04/24 09:06:59;;;;;;;2.93;1.73;;;13.50;98.50;;;;;;4995230;28;20476;-90
2023/04/24 09:09:26;;;;;;;2.10;1.47;;;13.50;98.60;;;;;;4979368;28;20723;-87
2023/04/24 09:11:55;;;;;;;2.13;1.30;;;13.50;98.70;;;;;;4962805;28;20932;-88
2023/04/24 09:14:23;;;;;;;2.30;1.70;;;13.50;98.80;;;;;;4994995;28;20499;-87
2023/04/24 09:17:12;;;;;;;2.73;1.80;;;13.40;98.80;;;;;;4986855;28;20592;-86
2023/04/24 09:19:40;;;;;;;4.30;2.70;;;13.40;98.90;;;;;;4994405;28;20448;-83
2023/04/24 09:22:07;;;;;;;3.03;2.40;;;13.50;99.00;;;;;;4962470;28;20812;-84
2023/04/24 09:24:36;;;;;;;3.70;2.03;;;13.40;99.00;;;;;;5013972;28;20946;-83
2023/04/24 09:27:04;;;;;;;2.70;2.20;;;13.40;99.00;;;;;;4997720;28;20474;-87
2023/04/24 09:29:32;;;;;;;3.27;2.70;;;13.40;99.10;;;;;;4975132;28;20523;-87
2023/04/24 09:31:58;;;;;;;3.37;2.63;;;13.40;99.10;;;;;;4991512;28;20476;-85
2023/04/24 09:34:26;;;;;;;3.47;3.17;;;13.40;99.10;;;;;;4943201;28;20479;-84
2023/04/24 09:36:54;;;;;;;3.20;2.90;;;13.40;99.10;;;;;;4974258;28;20484;-84
2023/04/24 09:39:20;;;;;;;3.00;2.70;;;13.40;99.20;;;;;;4994663;28;20459;-86
2023/04/24 09:41:47;;;;;;;4.57;3.17;;;13.40;99.20;;;;;;4962453;28;20519;-86
2023/04/24 09:44:15;;;;;;;5.80;3.50;;;13.40;99.30;;;;;;4962476;28;20967;-86
2023/04/24 09:46:45;;;;;;;4.40;2.77;;;13.40;99.30;;;;;;4974749;28;20984;-86
2023/04/24 09:49:16;;;;;;;3.90;3.27;;;13.40;99.30;;;;;;4974892;28;20405;-87
2023/04/24 09:51:44;;;;;;;4.43;3.40;;;13.40;99.30;;;;;;4976490;28;20433;-87
2023/04/24 09:54:20;;;;;;;4.97;3.50;;;13.40;99.30;;;;;;5013170;28;20465;-84
2023/04/24 09:56:50;;;;;;;3.93;3.40;;;13.40;99.30;;;;;;4985844;28;20768;-88
2023/04/24 09:59:18;;;;;;;4.40;3.40;;;13.40;99.40;;;;;;5002201;28;20450;-88
2023/04/24 10:01:44;;;;;;;4.17;3.57;;;13.40;99.50;;;;;;5017892;28;20414;-86
2023/04/24 10:04:22;;;;;;;6.13;3.83;;;13.40;99.50;;;;;;4985772;28;20490;-90
2023/04/24 10:06:50;;;;;;;4.23;3.83;;;13.40;99.50;;;;;;5001416;28;20478;-86
2023/04/24 10:09:18;;;;;;;4.47;3.60;;;13.40;99.60;;;;;;4997688;28;20436;-88
2023/04/24 10:11:49;;;;;;;4.77;3.03;;;13.40;99.60;;;;;;5014302;28;20437;-86
2023/04/24 10:14:21;;;;;;;4.67;3.73;;;13.30;99.60;;;;;;4997876;28;20437;-86
2023/04/24 10:16:54;;;;;;;5.60;3.50;;;13.30;99.70;;;;;;4998207;28;20851;-85
2023/04/24 10:19:25;;;;;;;6.80;3.60;;;13.40;99.90;;;;;;4997635;28;20467;-85
2023/04/24 10:21:54;;;;;;;7.57;3.50;;;13.40;99.90;;;;;;4998068;28;20495;-85
2023/04/24 10:24:22;;;;;;;4.87;3.97;;;13.40;99.90;;;;;;5014355;28;20491;-85
2023/04/24 10:26:52;;;;;;;4.03;3.73;;;13.40;99.90;;;;;;4997128;28;20889;-87
2023/04/24 10:29:18;;;;;;;6.23;3.50;;;13.30;99.90;;;;;;4995913;28;20463;-85
2023/04/24 10:31:47;;;;;;;6.40;3.67;;;13.40;99.90;;;;;;5013253;28;20421;-85
2023/04/24 10:34:20;;;;;;;6.53;3.67;;;13.30;99.90;;;;;;4981247;28;20989;-85
2023/04/24 10:36:50;;;;;;;7.10;3.30;;;13.30;99.90;;;;;;4981263;28;20464;-84
2023/04/24 10:39:20;;;;;;;5.40;3.63;;;13.30;99.90;;;;;;4965289;28;20483;-85
2023/04/24 10:41:49;;;;;;;4.10;3.03;;;13.30;99.90;;;;;;5013475;28;20512;-86
2023/04/24 10:44:16;;;;;;;6.30;4.20;;;13.30;99.90;;;;;;4965028;28;20428;-85
2023/04/24 10:46:52;;;;;;;6.80;3.57;;;13.30;99.90;;;;;;4964948;28;20472;-85
2023/04/24 10:49:28;;;;;;;6.40;3.47;;;13.30;99.90;;;;;;4980925;28;20408;-85
2023/04/24 10:52:01;;;;;;;5.67;3.20;;;13.40;99.90;;;;;;4965061;28;20449;-86
2023/04/24 10:54:30;;;;;;;4.80;3.30;;;13.40;99.90;;;;;;4981138;28;20773;-85
2023/04/24 10:57:19;;;;;;;7.07;3.27;;;13.40;99.90;;;;;;4980926;28;20441;-87
2023/04/24 10:59:48;;;;;;;7.87;4.17;;;13.40;99.90;;;;;;4964794;28;20812;-87
2023/04/24 11:02:15;;;;;;;5.73;3.43;;;13.40;99.90;;;;;;4980655;28;20428;-87
2023/04/24 11:04:44;;;;;;;4.93;3.20;;;13.40;99.90;;;;;;4979903;28;20791;-86
2023/04/24 11:07:12;;;;;;;5.07;3.10;;;13.30;99.90;;;;;;4996776;28;20862;-85
2023/04/24 11:09:40;;;;;;;8.03;3.40;;;13.40;99.90;;;;;;4996772;28;20436;-86
2023/04/24 11:12:13;;;;;;;5.53;3.47;;;13.40;99.90;;;;;;4965364;28;20463;-86
2023/04/24 11:15:00;;;;;;;6.03;3.63;;;13.40;99.90;;;;;;4980632;28;20411;-88
2023/04/24 11:17:37;;;;;;;4.63;3.43;;;13.40;99.90;;;;;;4981235;28;20530;-89
2023/04/24 11:20:07;;;;;;;6.10;3.70;;;13.40;99.90;;;;;;4965393;28;20455;-89
2023/04/24 11:22:35;;;;;;;7.00;3.80;;;13.40;99.90;;;;;;4997127;28;20406;-87
2023/04/24 11:25:03;;;;;;;7.00;4.00;;;13.40;99.90;;;;;;4964669;28;20483;-84
2023/04/24 11:27:38;;;;;;;6.30;4.17;;;13.40;99.90;;;;;;4980211;28;20858;-86
2023/04/24 11:30:05;;;;;;;9.30;4.70;;;13.40;99.90;;;;;;4996449;28;20417;-86
2023/04/24 11:32:33;;;;;;;5.37;3.63;;;13.40;99.90;;;;;;5013275;28;20492;-87
2023/04/24 11:35:05;;;;;;;5.80;3.43;;;13.40;99.90;;;;;;4996592;28;20948;-87
2023/04/24 11:37:39;;;;;;;6.40;3.63;;;13.40;99.90;;;;;;5012676;28;20479;-89
2023/04/24 11:40:10;;;;;;;8.03;3.53;;;13.30;99.90;;;;;;4996820;28;20755;-86
2023/04/24 11:42:38;;;;;;;5.00;3.40;;;13.40;99.90;;;;;;4964215;28;20765;-85
2023/04/24 11:45:09;;;;;;;6.17;3.30;;;13.40;99.90;;;;;;4970155;28;20442;-87
2023/04/24 11:47:35;;;;;;;6.13;3.60;;;13.40;99.90;;;;;;4999610;28;20555;-86
2023/04/24 11:50:03;;;;;;;6.77;3.20;;;13.40;99.90;;;;;;4999602;28;21060;-86
2023/04/24 11:52:36;;;;;;;3.60;3.00;;;13.40;99.90;;;;;;4999604;28;20505;-85
2023/04/24 11:55:03;;;;;;;7.00;3.33;;;13.40;99.90;;;;;;4999316;28;20446;-83
2023/04/24 11:57:36;;;;;;;5.67;3.40;;;13.40;99.90;;;;;;5015448;28;20466;-85
2023/04/24 12:00:07;;;;;;;4.37;3.30;;;13.40;99.90;;;;;;4990307;28;20865;-86
2023/04/24 12:02:42;;;;;;;7.33;3.73;;;13.40;99.90;;;;;;4976496;28;20457;-83
2023/04/24 12:05:27;;;;;;;5.60;3.37;;;13.40;99.90;;;;;;4976227;28;20434;-87
2023/04/24 12:07:55;;;;;;;6.43;3.37;;;13.40;99.90;;;;;;4976324;28;20727;-87
2023/04/24 12:10:25;;;;;;;6.83;2.97;;;13.40;99.90;;;;;;4976821;28;20485;-86
2023/04/24 12:12:52;;;;;;;4.57;3.10;;;13.40;99.90;;;;;;4944377;28;20488;-90
2023/04/24 12:15:19;;;;;;;5.73;3.27;;;13.40;99.90;;;;;;4944282;28;20419;-87
2023/04/24 12:17:46;;;;;;;5.23;4.23;;;13.40;99.80;;;;;;4944656;28;20444;-89
2023/04/24 12:20:13;;;;;;;5.40;3.17;;;13.40;99.80;;;;;;4976045;28;20457;-86
2023/04/24 12:22:46;;;;;;;9.90;3.80;;;13.40;99.80;;;;;;4988151;28;20462;-85
2023/04/24 12:25:12;;;;;;;6.40;2.70;;;13.40;99.70;;;;;;4999102;28;20432;-85
2023/04/24 12:27:38;;;;;;;5.47;3.70;;;13.40;99.60;;;;;;4982234;28;20466;-83
2023/04/24 12:30:09;;;;;;;5.10;2.77;;;13.40;99.60;;;;;;5031259;28;20743;-85
2023/04/24 12:32:42;;;;;;;5.70;2.73;;;13.40;99.50;;;;;;4982628;28;20182;-87
2023/04/24 12:35:11;;;;;;;4.23;2.97;;;13.40;99.40;;;;;;4998549;28;20818;-85
2023/04/24 12:37:37;;;;;;;4.07;2.80;;;13.40;99.40;;;;;;4998629;28;20519;-85
2023/04/24 12:40:08;;;;;;;6.83;2.90;;;13.40;99.30;;;;;;4982860;28;20470;-83
2023/04/24 12:42:35;;;;;;;4.23;2.60;;;13.40;99.20;;;;;;5014745;28;20534;-85
2023/04/24 12:45:06;;;;;;;8.20;2.67;;;13.40;99.10;;;;;;4982481;28;20500;-86
2023/04/24 12:47:34;;;;;;;6.67;3.17;;;13.40;99.10;;;;;;4982335;28;20458;-87
2023/04/24 12:50:00;;;;;;;4.63;2.80;;;13.40;99.10;;;;;;4982583;28;20661;-88
2023/04/24 12:52:28;;;;;;;3.97;2.50;;;13.40;99.00;;;;;;4982742;28;20426;-89
2023/04/24 12:54:56;;;;;;;4.77;2.73;;;13.40;99.00;;;;;;4998708;28;20776;-87
2023/04/24 12:57:23;;;;;;;2.40;2.10;;;13.40;98.90;;;;;;4998406;28;20469;-85
2023/04/24 12:59:57;;;;;;;3.23;2.40;;;13.40;98.90;;;;;;5014617;28;21021;-85
2023/04/24 13:02:35;;;;;;;5.37;2.07;;;13.40;98.80;;;;;;4999307;28;20486;-85